Time;durP1;ratioP1;P1;durP2;ratioP2;P2;SDS_P1;SDS_P2;PMS_P1;PMS_P2;Temp;Humidity;BMP_temperature;BMP_pressure;BME280_temperature;BME280_humidity;BME280_pressure;Samples;Min_cycle;Max_cycle;Signal;HPM_P1;HPM_P2
2022/06/22 00:02:19;;;;;;;11.52;4.60;;;22.30;61.80;;;;;;5045276;28;20090;-67
2022/06/22 00:04:46;;;;;;;11.70;4.63;;;22.30;61.80;;;;;;5057510;28;20500;-67
2022/06/22 00:07:36;;;;;;;9.63;4.32;;;22.20;61.70;;;;;;5044684;28;20066;-67
2022/06/22 00:10:20;;;;;;;10.57;4.32;;;22.20;61.80;;;;;;5041505;28;20643;-67
2022/06/22 00:12:51;;;;;;;9.10;4.15;;;22.20;61.80;;;;;;5045677;28;20028;-67
2022/06/22 00:15:36;;;;;;;9.77;4.28;;;22.20;61.80;;;;;;5046016;28;20520;-67
2022/06/22 00:18:03;;;;;;;9.38;4.03;;;22.20;61.80;;;;;;5045084;28;20476;-67
2022/06/22 00:20:30;;;;;;;10.23;4.25;;;22.20;61.80;;;;;;5044464;28;20477;-67
2022/06/22 00:22:59;;;;;;;8.80;4.13;;;22.20;61.90;;;;;;5044032;28;20029;-67
2022/06/22 00:25:30;;;;;;;12.02;4.72;;;22.20;61.80;;;;;;5054710;28;20135;-67
2022/06/22 00:28:16;;;;;;;10.30;4.50;;;22.20;61.90;;;;;;5044471;28;20021;-67
2022/06/22 00:30:45;;;;;;;7.78;3.65;;;22.20;61.80;;;;;;5043355;28;20041;-67
2022/06/22 00:33:22;;;;;;;9.55;3.70;;;22.20;61.80;;;;;;5043826;28;20034;-67
2022/06/22 00:36:01;;;;;;;8.90;3.90;;;22.20;61.80;;;;;;5044946;28;20029;-67
2022/06/22 00:38:31;;;;;;;9.20;4.15;;;22.20;61.80;;;;;;5058427;28;20025;-67
2022/06/22 00:41:00;;;;;;;10.32;4.20;;;22.20;61.80;;;;;;5044165;28;20028;-67
2022/06/22 00:43:28;;;;;;;9.85;4.53;;;22.20;61.80;;;;;;5042221;28;20978;-67
2022/06/22 00:45:54;;;;;;;9.00;4.32;;;22.20;61.80;;;;;;5060042;28;20041;-66
2022/06/22 00:48:28;;;;;;;10.18;4.28;;;22.20;61.80;;;;;;5029071;28;20025;-67
2022/06/22 00:51:04;;;;;;;;;;;22.20;61.80;;;;;;5044214;28;20509;-67
2022/06/22 00:53:41;;;;;;;9.32;3.85;;;22.10;61.80;;;;;;5060870;28;19963;-67
2022/06/22 00:56:41;;;;;;;7.95;3.70;;;22.10;61.90;;;;;;5057974;28;20587;-67
2022/06/22 00:59:29;;;;;;;9.75;4.00;;;22.10;61.80;;;;;;5025836;28;20062;-67
2022/06/22 01:02:02;;;;;;;11.40;3.90;;;22.10;61.80;;;;;;5044492;28;20041;-67
2022/06/22 01:04:43;;;;;;;9.02;3.90;;;22.10;61.80;;;;;;5025895;28;20024;-67
2022/06/22 01:07:16;;;;;;;9.20;4.35;;;22.10;61.90;;;;;;5056735;28;20435;-67
2022/06/22 01:10:04;;;;;;;7.82;3.90;;;22.10;63.00;;;;;;5043396;28;20040;-67
2022/06/22 01:12:31;;;;;;;10.02;3.95;;;22.10;61.90;;;;;;5065019;28;20025;-67
2022/06/22 01:15:17;;;;;;;10.02;3.70;;;22.10;62.10;;;;;;5042272;28;20029;-67
2022/06/22 01:18:02;;;;;;;9.63;3.90;;;22.10;61.90;;;;;;5045236;28;20017;-67
2022/06/22 01:20:32;;;;;;;9.00;4.03;;;22.10;62.00;;;;;;5043875;28;20029;-67
2022/06/22 01:23:20;;;;;;;7.28;3.53;;;22.00;61.90;;;;;;5059780;28;20078;-67
2022/06/22 01:25:49;;;;;;;7.88;3.95;;;22.00;63.00;;;;;;5058536;28;20476;-67
2022/06/22 01:28:15;;;;;;;7.60;3.95;;;22.00;61.90;;;;;;5058575;28;20033;-67
2022/06/22 01:30:47;;;;;;;9.73;4.00;;;22.00;61.90;;;;;;5042527;28;20036;-67
2022/06/22 01:33:25;;;;;;;8.85;4.00;;;22.00;61.90;;;;;;5042907;28;20507;-67
2022/06/22 01:35:53;;;;;;;8.25;3.92;;;22.00;62.00;;;;;;5043717;28;20032;-67
2022/06/22 01:38:24;;;;;;;7.57;3.58;;;22.00;62.00;;;;;;5043262;28;20064;-67
2022/06/22 01:40:58;;;;;;;8.15;3.83;;;22.00;62.00;;;;;;5044419;28;20095;-67
2022/06/22 01:43:28;;;;;;;7.82;3.83;;;22.00;62.10;;;;;;5044223;28;20032;-66
2022/06/22 01:46:20;;;;;;;7.95;3.83;;;22.00;62.00;;;;;;5060598;28;20572;-67
2022/06/22 01:48:58;;;;;;;6.72;3.42;;;22.00;62.00;;;;;;5044557;28;20017;-66
2022/06/22 01:51:25;;;;;;;8.10;3.53;;;22.00;62.00;;;;;;5045534;28;20036;-67
2022/06/22 01:54:17;;;;;;;8.43;3.58;;;22.00;62.00;;;;;;5058715;28;20017;-67
2022/06/22 01:56:53;;;;;;;9.40;3.83;;;22.00;62.00;;;;;;5041773;28;20017;-67
2022/06/22 01:59:27;;;;;;;9.40;4.00;;;21.90;62.00;;;;;;5038591;28;20051;-66
2022/06/22 02:02:08;;;;;;;7.68;3.70;;;21.90;62.10;;;;;;5043347;28;20090;-67
2022/06/22 02:04:56;;;;;;;7.85;3.72;;;21.90;62.10;;;;;;5059287;28;20115;-67
2022/06/22 02:07:48;;;;;;;8.27;3.60;;;21.90;62.00;;;;;;5042382;28;20033;-69
2022/06/22 02:10:21;;;;;;;8.10;3.53;;;21.90;62.00;;;;;;5031639;28;20033;-67
2022/06/22 02:12:49;;;;;;;10.48;3.97;;;21.90;62.00;;;;;;5031826;28;20060;-66
2022/06/22 02:15:39;;;;;;;7.00;3.55;;;21.90;62.10;;;;;;5037284;28;20045;-67
2022/06/22 02:18:22;;;;;;;7.30;3.50;;;21.90;62.20;;;;;;5020574;28;20036;-67
2022/06/22 02:20:48;;;;;;;8.50;3.47;;;21.90;62.10;;;;;;5019812;28;20128;-67
2022/06/22 02:23:39;;;;;;;7.55;3.63;;;21.90;62.10;;;;;;5020427;28;20122;-67
2022/06/22 02:26:35;;;;;;;6.78;3.85;;;21.90;62.10;;;;;;5020299;28;20040;-67
2022/06/22 02:29:01;;;;;;;6.57;3.45;;;21.80;62.10;;;;;;5034342;28;20050;-67
2022/06/22 02:31:27;;;;;;;7.60;3.35;;;21.80;62.00;;;;;;5018274;28;20080;-67
2022/06/22 02:33:53;;;;;;;6.85;3.75;;;21.80;62.10;;;;;;5019403;28;20033;-67
2022/06/22 02:36:19;;;;;;;8.43;3.83;;;21.80;62.10;;;;;;5021287;28;20041;-67
2022/06/22 02:38:47;;;;;;;10.43;3.70;;;21.80;62.10;;;;;;5018493;28;20036;-67
2022/06/22 02:46:42;;;;;;;7.47;3.50;;;21.80;62.10;;;;;;5025026;28;20294;-66
2022/06/22 02:49:31;;;;;;;7.20;3.60;;;21.80;62.10;;;;;;5058797;28;20067;-67
2022/06/22 02:51:57;;;;;;;7.97;3.60;;;21.80;62.20;;;;;;5054112;28;20104;-67
2022/06/22 02:54:39;;;;;;;7.25;3.40;;;21.80;62.20;;;;;;5045282;28;20060;-67
2022/06/22 02:57:22;;;;;;;7.07;3.33;;;21.80;62.20;;;;;;5059803;28;20017;-67
2022/06/22 02:59:48;;;;;;;6.68;3.40;;;21.80;62.20;;;;;;5059987;28;20478;-67
2022/06/22 03:02:13;;;;;;;8.73;3.33;;;21.80;62.10;;;;;;5061551;28;20029;-67
2022/06/22 03:04:40;;;;;;;5.97;3.35;;;21.80;62.20;;;;;;5046563;28;20021;-67
2022/06/22 03:07:05;;;;;;;6.32;3.10;;;21.80;62.20;;;;;;5047007;28;20469;-67
2022/06/22 03:09:31;;;;;;;6.80;3.55;;;21.70;62.20;;;;;;5045080;28;20029;-67
2022/06/22 03:11:58;;;;;;;6.90;3.40;;;21.80;62.30;;;;;;5042446;28;20067;-67
2022/06/22 03:14:35;;;;;;;7.38;3.42;;;21.70;62.20;;;;;;5046011;28;20029;-67
2022/06/22 03:17:13;;;;;;;5.38;3.10;;;21.70;62.20;;;;;;5044283;28;20124;-67
2022/06/22 03:19:43;;;;;;;7.05;3.67;;;21.70;62.20;;;;;;5063683;28;20054;-67
2022/06/22 03:22:20;;;;;;;7.15;3.60;;;21.70;62.20;;;;;;5027469;28;20111;-67
2022/06/22 03:24:55;;;;;;;6.32;3.15;;;21.70;62.20;;;;;;5041966;28;20072;-67
2022/06/22 03:27:23;;;;;;;8.25;3.53;;;21.70;62.20;;;;;;5062211;28;20021;-66
2022/06/22 03:30:12;;;;;;;7.50;3.28;;;21.70;62.20;;;;;;5062040;28;20491;-67
2022/06/22 03:32:52;;;;;;;6.32;3.22;;;21.70;62.20;;;;;;5046192;28;20032;-66
2022/06/22 03:35:19;;;;;;;7.82;3.50;;;21.70;62.30;;;;;;5060866;28;20021;-67
2022/06/22 03:37:51;;;;;;;7.15;3.30;;;21.70;62.20;;;;;;5063445;28;20029;-67
2022/06/22 03:40:21;;;;;;;5.57;3.10;;;21.70;62.30;;;;;;5043666;28;20035;-67
2022/06/22 03:42:49;;;;;;;6.72;3.13;;;21.70;62.30;;;;;;5059138;28;20096;-67
2022/06/22 03:45:21;;;;;;;6.28;3.33;;;21.60;62.20;;;;;;5060952;28;20072;-64
2022/06/22 03:48:08;;;;;;;6.20;3.38;;;21.70;62.20;;;;;;5029356;28;20025;-63
2022/06/22 03:50:52;;;;;;;6.72;3.33;;;21.70;62.20;;;;;;5059653;28;20490;-64
2022/06/22 03:53:21;;;;;;;6.00;3.47;;;21.70;62.30;;;;;;5045401;28;20073;-63
2022/06/22 03:55:50;;;;;;;8.13;3.50;;;21.60;62.30;;;;;;5061881;28;20021;-64
2022/06/22 03:58:16;;;;;;;8.27;3.35;;;21.60;62.20;;;;;;5045902;28;20017;-63
2022/06/22 04:00:43;;;;;;;6.03;3.38;;;21.60;62.20;;;;;;5045022;28;20463;-64
2022/06/22 04:03:09;;;;;;;6.90;3.40;;;21.60;62.30;;;;;;5062765;28;20131;-64
2022/06/22 04:05:55;;;;;;;6.85;3.33;;;21.60;62.30;;;;;;5061191;28;21737;-64
2022/06/22 04:08:31;;;;;;;5.20;3.08;;;21.60;62.30;;;;;;5043776;28;20564;-64
2022/06/22 04:11:06;;;;;;;7.18;3.30;;;21.60;62.30;;;;;;5067680;28;20034;-64
2022/06/22 04:13:38;;;;;;;5.57;3.15;;;21.60;62.30;;;;;;5056652;28;20033;-64
2022/06/22 04:16:17;;;;;;;7.00;3.22;;;21.60;62.30;;;;;;5044112;28;20032;-64
2022/06/22 04:18:59;;;;;;;5.65;3.38;;;21.60;62.30;;;;;;5056987;28;20025;-64
2022/06/22 04:21:36;;;;;;;6.93;3.40;;;21.60;62.40;;;;;;5058249;28;20040;-63
2022/06/22 04:24:11;;;;;;;5.75;3.10;;;21.60;62.30;;;;;;5059490;28;20040;-63
2022/06/22 04:26:49;;;;;;;6.70;3.22;;;21.60;62.30;;;;;;5059130;28;20120;-63
2022/06/22 04:29:39;;;;;;;6.68;3.25;;;21.60;62.30;;;;;;5045923;28;20032;-63
2022/06/22 04:32:10;;;;;;;6.15;3.47;;;21.60;62.30;;;;;;5044791;28;20045;-63
2022/06/22 04:35:05;;;;;;;6.55;3.20;;;21.60;62.20;;;;;;5045527;28;20516;-64
2022/06/22 04:37:39;;;;;;;8.05;3.30;;;21.60;62.30;;;;;;4983470;28;20538;-63
2022/06/22 04:40:53;;;;;;;6.72;3.30;;;21.60;62.30;;;;;;4967352;28;20073;-63
2022/06/22 04:43:19;;;;;;;6.88;3.15;;;21.60;62.30;;;;;;4975571;28;20121;-64
2022/06/22 04:45:45;;;;;;;9.43;4.32;;;21.60;62.50;;;;;;4967966;28;20499;-63
2022/06/22 04:48:22;;;;;;;7.45;3.45;;;21.60;62.90;;;;;;4982620;28;20046;-63
2022/06/22 04:50:49;;;;;;;8.80;4.22;;;21.60;63.00;;;;;;4967499;28;20049;-63
2022/06/22 04:53:26;;;;;;;6.18;3.25;;;21.60;62.90;;;;;;4981607;28;20033;-63
2022/06/22 04:55:52;;;;;;;6.63;3.70;;;21.60;62.90;;;;;;4967524;28;20101;-63
2022/06/22 04:58:36;;;;;;;12.32;3.75;;;21.60;62.80;;;;;;4981710;28;20034;-63
2022/06/22 05:01:03;;;;;;;9.57;3.75;;;21.60;63.00;;;;;;4968932;28;20541;-61
2022/06/22 05:03:28;;;;;;;6.53;3.20;;;21.60;63.00;;;;;;4983021;28;20038;-61
2022/06/22 05:05:55;;;;;;;9.13;3.28;;;21.60;63.10;;;;;;4966571;28;20033;-61
2022/06/22 05:08:25;;;;;;;8.43;3.42;;;21.60;63.00;;;;;;4969496;28;20050;-61
2022/06/22 05:11:16;;;;;;;7.30;3.20;;;21.60;63.20;;;;;;4984131;28;20038;-61
2022/06/22 05:13:47;;;;;;;9.68;3.55;;;21.60;62.70;;;;;;4989950;28;20073;-61
2022/06/22 05:16:19;;;;;;;10.55;3.40;;;21.70;63.50;;;;;;5027401;28;20025;-61
2022/06/22 05:18:45;;;;;;;7.90;3.30;;;21.70;63.70;;;;;;5045393;28;20478;-61
2022/06/22 05:21:16;;;;;;;9.90;3.50;;;21.70;63.80;;;;;;5044561;28;20040;-61
2022/06/22 05:23:44;;;;;;;8.63;3.67;;;21.70;63.80;;;;;;5041188;28;20028;-61
2022/06/22 05:26:09;;;;;;;17.20;4.03;;;21.70;63.80;;;;;;5060024;28;20102;-63
2022/06/22 05:28:40;;;;;;;9.77;3.60;;;21.70;63.80;;;;;;5044646;28;20495;-63
2022/06/22 05:31:09;;;;;;;9.60;3.58;;;21.80;63.80;;;;;;5044888;28;20028;-63
2022/06/22 05:33:36;;;;;;;7.20;3.70;;;21.80;63.80;;;;;;5060455;28;20024;-64
2022/06/22 05:36:04;;;;;;;9.95;3.70;;;21.80;63.90;;;;;;5028279;28;20077;-63
2022/06/22 05:38:33;;;;;;;11.52;4.05;;;21.80;63.90;;;;;;5058462;28;20021;-62
2022/06/22 05:41:04;;;;;;;10.90;3.90;;;21.80;64.10;;;;;;5044927;28;20501;-62
2022/06/22 05:43:31;;;;;;;11.98;4.05;;;21.80;64.20;;;;;;5027070;28;20076;-61
2022/06/22 05:46:02;;;;;;;10.07;4.00;;;21.80;64.40;;;;;;5007727;28;20033;-62
2022/06/22 05:48:29;;;;;;;10.35;3.90;;;21.80;64.10;;;;;;5028223;28;20021;-62
2022/06/22 05:51:07;;;;;;;14.63;3.90;;;21.80;65.20;;;;;;5007142;28;20037;-62
2022/06/22 05:53:50;;;;;;;11.15;3.83;;;21.90;64.30;;;;;;5022684;28;20042;-61
2022/06/22 05:56:33;;;;;;;9.90;4.25;;;21.80;64.50;;;;;;5021604;28;20472;-61
2022/06/22 05:59:29;;;;;;;12.57;4.15;;;21.90;64.50;;;;;;5027913;28;20029;-60
2022/06/22 06:02:12;;;;;;;15.68;4.03;;;21.90;64.40;;;;;;5024123;28;20068;-60
2022/06/22 06:04:49;;;;;;;11.57;3.80;;;21.90;64.20;;;;;;5020016;28;21997;-61
2022/06/22 06:07:38;;;;;;;11.93;3.88;;;21.90;64.50;;;;;;5021051;28;20106;-60
2022/06/22 06:10:08;;;;;;;10.75;4.20;;;21.90;64.60;;;;;;5010354;28;20064;-60
2022/06/22 06:12:37;;;;;;;11.07;3.90;;;21.90;64.50;;;;;;5009357;28;20429;-60
2022/06/22 06:15:04;;;;;;;16.67;4.28;;;21.90;64.70;;;;;;5006434;28;20021;-60
2022/06/22 06:17:37;;;;;;;10.85;4.00;;;21.90;64.60;;;;;;5024816;28;20030;-60
2022/06/22 06:20:04;;;;;;;10.40;3.97;;;21.90;64.50;;;;;;5024138;28;20028;-60
2022/06/22 06:22:30;;;;;;;10.80;4.05;;;21.80;64.70;;;;;;5023476;28;20060;-60
2022/06/22 06:28:02;;;;;;;12.38;4.00;;;21.90;64.40;;;;;;5026772;28;20116;-60
2022/06/22 06:30:40;;;;;;;8.57;3.83;;;21.80;64.40;;;;;;5029866;28;20036;-60
2022/06/22 06:33:10;;;;;;;9.68;4.10;;;21.80;64.40;;;;;;5029355;28;20079;-60
2022/06/22 06:35:39;;;;;;;10.45;3.90;;;21.80;64.40;;;;;;5025243;28;20026;-60
2022/06/22 06:38:23;;;;;;;12.25;4.10;;;21.80;64.20;;;;;;5022297;28;20471;-60
2022/06/22 06:41:08;;;;;;;14.40;4.00;;;21.90;64.20;;;;;;5024270;28;20029;-60
2022/06/22 06:43:36;;;;;;;;;;;21.90;64.20;;;;;;5027624;28;20486;-60
2022/06/22 06:46:21;;;;;;;10.32;4.10;;;21.80;64.20;;;;;;5048461;28;19917;-60
2022/06/22 06:49:00;;;;;;;9.90;4.15;;;21.90;64.10;;;;;;5045524;28;20028;-60
2022/06/22 06:51:25;;;;;;;10.52;3.65;;;21.90;64.20;;;;;;5033388;28;20560;-60
2022/06/22 06:54:13;;;;;;;9.40;3.90;;;21.80;64.10;;;;;;5062496;28;20096;-60
2022/06/22 06:56:46;;;;;;;10.57;3.97;;;21.90;64.10;;;;;;5061317;28;20418;-60
2022/06/22 06:59:15;;;;;;;10.75;3.97;;;21.90;64.10;;;;;;5064824;28;20029;-60
2022/06/22 07:01:40;;;;;;;10.38;3.85;;;21.90;64.10;;;;;;5064746;28;20021;-60
2022/06/22 07:04:08;;;;;;;10.40;3.70;;;21.90;64.00;;;;;;5063608;28;20036;-60
2022/06/22 07:06:34;;;;;;;10.73;3.90;;;21.90;64.10;;;;;;5049617;28;20025;-60
2022/06/22 07:09:08;;;;;;;11.13;3.80;;;21.90;64.00;;;;;;5048865;28;20027;-60
2022/06/22 07:11:41;;;;;;;8.77;3.70;;;21.90;63.90;;;;;;5059226;28;20059;-60
2022/06/22 07:14:11;;;;;;;8.95;3.55;;;21.90;63.90;;;;;;5064090;28;20530;-60
2022/06/22 07:16:37;;;;;;;9.65;3.50;;;21.90;63.90;;;;;;5064343;28;20104;-60
2022/06/22 07:19:12;;;;;;;12.75;4.18;;;21.90;63.80;;;;;;5046376;28;20159;-60
2022/06/22 07:21:49;;;;;;;11.05;3.50;;;21.90;63.80;;;;;;5047704;28;20071;-60
2022/06/22 07:24:30;;;;;;;7.88;3.92;;;21.90;63.80;;;;;;5048831;28;20104;-60
2022/06/22 07:27:10;;;;;;;9.00;3.95;;;21.90;63.70;;;;;;5061252;28;20556;-60
2022/06/22 07:30:08;;;;;;;8.55;3.95;;;22.00;63.80;;;;;;5062227;28;20104;-60
2022/06/22 07:32:45;;;;;;;11.02;4.10;;;22.00;63.70;;;;;;5045136;28;20052;-60
2022/06/22 07:35:14;;;;;;;10.63;3.90;;;22.00;63.70;;;;;;5045548;28;20112;-60
2022/06/22 07:38:07;;;;;;;9.70;4.07;;;22.00;63.70;;;;;;5041797;28;20033;-60
2022/06/22 07:40:32;;;;;;;9.00;3.53;;;22.00;63.60;;;;;;5026168;28;20885;-60
2022/06/22 07:42:58;;;;;;;9.32;3.90;;;22.00;63.60;;;;;;5044876;28;20576;-60
2022/06/22 07:45:24;;;;;;;8.90;3.40;;;22.00;63.60;;;;;;5046451;28;20040;-60
2022/06/22 07:47:55;;;;;;;8.68;3.60;;;22.00;63.50;;;;;;5047467;28;20036;-60
2022/06/22 07:50:32;;;;;;;11.45;3.80;;;22.00;63.50;;;;;;5039981;28;20086;-60
2022/06/22 07:53:16;;;;;;;9.60;3.42;;;22.00;63.50;;;;;;5028506;28;20040;-60
2022/06/22 07:56:01;;;;;;;8.15;3.58;;;22.10;63.60;;;;;;5024364;28;20041;-60
2022/06/22 07:58:40;;;;;;;9.77;3.58;;;22.10;63.70;;;;;;5045172;28;20036;-60
2022/06/22 08:01:09;;;;;;;8.93;3.67;;;22.10;63.60;;;;;;5027193;28;20033;-60
2022/06/22 08:03:43;;;;;;;8.45;3.70;;;22.10;63.50;;;;;;5029522;28;20033;-60
2022/06/22 08:06:20;;;;;;;9.32;4.05;;;22.10;63.50;;;;;;5047224;28;20044;-60
2022/06/22 08:08:54;;;;;;;7.13;3.60;;;22.10;63.40;;;;;;5043769;28;20029;-61
2022/06/22 08:11:41;;;;;;;8.45;3.80;;;22.10;63.40;;;;;;5062777;28;20110;-60
2022/06/22 08:14:14;;;;;;;8.05;3.53;;;22.10;63.50;;;;;;5043394;28;20100;-60
2022/06/22 08:16:51;;;;;;;8.32;3.85;;;22.20;63.50;;;;;;5046328;28;20605;-60
2022/06/22 08:19:17;;;;;;;7.40;3.97;;;22.20;63.40;;;;;;5044559;28;20025;-60
2022/06/22 08:21:50;;;;;;;10.05;3.80;;;22.20;63.40;;;;;;5062563;28;20043;-60
2022/06/22 08:24:16;;;;;;;10.07;3.85;;;22.20;63.20;;;;;;5045423;28;20024;-60
2022/06/22 08:26:42;;;;;;;9.02;3.63;;;22.20;63.30;;;;;;5063149;28;20025;-61
2022/06/22 08:29:08;;;;;;;8.65;3.20;;;22.20;62.90;;;;;;5060463;28;20051;-60
2022/06/22 08:31:49;;;;;;;8.20;3.72;;;22.30;62.90;;;;;;5058115;28;20037;-60
2022/06/22 08:34:17;;;;;;;8.43;3.60;;;22.20;63.10;;;;;;5059088;28;20033;-60
2022/06/22 08:36:46;;;;;;;7.82;3.38;;;22.20;62.90;;;;;;5062026;28;20037;-61
2022/06/22 08:39:20;;;;;;;7.03;3.65;;;22.30;63.10;;;;;;5046119;28;20021;-60
2022/06/22 08:41:48;;;;;;;8.73;3.67;;;22.30;63.20;;;;;;5044726;28;20045;-60
2022/06/22 08:44:39;;;;;;;9.90;4.00;;;22.30;63.10;;;;;;5039422;28;20075;-61
2022/06/22 08:47:22;;;;;;;8.07;3.78;;;22.30;62.90;;;;;;5020250;28;20052;-60
2022/06/22 08:50:09;;;;;;;8.45;3.42;;;22.30;63.10;;;;;;5027745;28;20021;-60
2022/06/22 08:52:40;;;;;;;9.35;3.75;;;22.30;63.00;;;;;;5028636;28;20040;-60
2022/06/22 08:55:17;;;;;;;7.15;3.70;;;22.30;63.20;;;;;;5010520;28;20028;-60
2022/06/22 08:58:40;;;;;;;8.50;3.85;;;22.30;63.30;;;;;;5025476;28;20033;-60
2022/06/22 09:01:19;;;;;;;6.07;3.67;;;22.30;63.40;;;;;;4981054;28;20122;-60
2022/06/22 09:03:47;;;;;;;8.43;3.70;;;22.30;63.40;;;;;;4983056;28;20487;-60
2022/06/22 09:06:37;;;;;;;8.10;3.53;;;22.30;63.30;;;;;;4988763;28;20038;-60
2022/06/22 09:09:34;;;;;;;8.15;3.63;;;22.30;63.40;;;;;;4980926;28;20034;-60
2022/06/22 09:12:24;;;;;;;7.32;3.40;;;22.30;63.10;;;;;;4986544;28;20077;-60
2022/06/22 09:15:18;;;;;;;9.00;3.78;;;22.30;63.20;;;;;;4989702;28;20080;-60
2022/06/22 09:18:01;;;;;;;7.72;3.50;;;22.30;63.20;;;;;;4931011;29;20071;-60
2022/06/22 09:21:01;;;;;;;7.57;3.72;;;22.30;63.20;;;;;;4926343;29;20070;-60
2022/06/22 09:23:40;;;;;;;9.00;3.88;;;22.30;63.30;;;;;;4890248;29;20044;-60
2022/06/22 09:26:20;;;;;;;7.93;3.63;;;22.30;63.40;;;;;;4884863;29;20048;-61
2022/06/22 09:28:56;;;;;;;9.18;4.00;;;22.30;63.50;;;;;;4887147;29;20044;-60
2022/06/22 09:31:24;;;;;;;9.45;3.75;;;22.30;63.50;;;;;;4871460;29;20188;-61
2022/06/22 09:34:41;;;;;;;7.68;3.60;;;22.30;63.40;;;;;;4886341;29;20115;-60
2022/06/22 09:37:25;;;;;;;7.63;3.88;;;22.30;63.40;;;;;;4820142;29;20053;-60
2022/06/22 09:40:13;;;;;;;8.20;3.83;;;22.30;63.40;;;;;;4819060;29;20047;-60
2022/06/22 09:43:06;;;;;;;8.02;3.53;;;22.30;63.40;;;;;;4819129;29;20056;-61
2022/06/22 09:45:37;;;;;;;8.57;3.92;;;22.30;63.50;;;;;;4822160;29;20061;-60
2022/06/22 09:48:21;;;;;;;6.00;3.33;;;22.30;63.50;;;;;;4808406;29;20038;-60
2022/06/22 09:51:07;;;;;;;8.10;3.40;;;22.30;63.60;;;;;;4802304;29;20122;-60
2022/06/22 09:53:51;;;;;;;8.63;4.20;;;22.30;63.60;;;;;;4800033;29;20082;-61
2022/06/22 09:56:41;;;;;;;8.63;3.63;;;22.30;63.60;;;;;;4832636;29;20504;-60
2022/06/22 09:59:22;;;;;;;7.70;3.60;;;22.30;63.60;;;;;;4840424;29;21003;-60
2022/06/22 10:01:51;;;;;;;8.13;3.67;;;22.30;63.50;;;;;;4884838;29;20033;-60
2022/06/22 10:04:35;;;;;;;6.40;3.60;;;22.30;63.60;;;;;;4887774;29;20059;-60
2022/06/22 10:07:25;;;;;;;8.70;3.92;;;22.30;63.60;;;;;;4886920;29;20055;-60
2022/06/22 10:10:02;;;;;;;7.93;3.70;;;22.30;63.60;;;;;;4881549;29;20037;-61
2022/06/22 10:12:56;;;;;;;8.43;3.45;;;22.30;63.60;;;;;;4956804;28;20064;-60
2022/06/22 10:15:27;;;;;;;8.30;3.70;;;22.30;63.60;;;;;;5008750;28;20079;-61
2022/06/22 10:18:20;;;;;;;7.05;3.72;;;22.30;63.60;;;;;;5027914;28;20033;-60
2022/06/22 10:21:10;;;;;;;9.30;4.00;;;22.40;63.70;;;;;;5028019;28;20057;-60
2022/06/22 10:23:58;;;;;;;7.10;3.70;;;22.40;63.70;;;;;;5024722;28;20032;-61
2022/06/22 10:26:23;;;;;;;8.43;4.25;;;22.40;63.60;;;;;;5021161;28;20034;-61
2022/06/22 10:29:21;;;;;;;6.70;3.50;;;22.50;63.70;;;;;;5026925;28;20041;-60
2022/06/22 10:32:04;;;;;;;9.20;3.78;;;22.50;63.70;;;;;;5006844;28;20030;-60
2022/06/22 10:34:45;;;;;;;10.73;3.88;;;22.50;63.70;;;;;;5012426;28;20624;-61
2022/06/22 10:37:14;;;;;;;7.80;3.70;;;22.50;63.60;;;;;;5024611;28;20454;-60
2022/06/22 10:40:02;;;;;;;6.97;3.65;;;22.60;63.40;;;;;;5025135;28;20029;-60
2022/06/22 10:45:50;;;;;;;6.03;3.55;;;22.60;63.50;;;;;;5050121;28;20139;-61
2022/06/22 10:48:37;;;;;;;7.40;3.83;;;22.60;62.90;;;;;;5043881;28;20029;-60
2022/06/22 10:51:12;;;;;;;7.38;3.47;;;22.70;63.40;;;;;;5045151;28;20029;-60
2022/06/22 10:54:04;;;;;;;7.45;3.60;;;22.70;62.90;;;;;;5057793;28;20740;-60
2022/06/22 10:56:50;;;;;;;8.05;3.78;;;22.70;63.20;;;;;;5000044;28;20046;-61
2022/06/22 10:59:28;;;;;;;5.72;3.45;;;22.70;63.00;;;;;;5007633;28;20934;-60
2022/06/22 11:02:02;;;;;;;7.82;3.60;;;22.80;63.10;;;;;;4984506;28;20095;-61
2022/06/22 11:04:36;;;;;;;7.53;3.40;;;22.70;62.90;;;;;;4983913;28;20029;-60
2022/06/22 11:07:23;;;;;;;6.97;3.65;;;22.80;63.20;;;;;;4997129;28;20033;-61
2022/06/22 11:10:00;;;;;;;7.15;3.60;;;22.70;63.20;;;;;;5004296;28;20053;-60
2022/06/22 11:12:47;;;;;;;6.20;3.60;;;22.80;63.00;;;;;;4997673;28;20120;-61
2022/06/22 11:15:43;;;;;;;8.00;4.10;;;22.70;63.10;;;;;;5000862;28;20042;-60
2022/06/22 11:18:40;;;;;;;8.35;3.63;;;22.70;63.00;;;;;;5003316;28;20038;-61
2022/06/22 11:21:20;;;;;;;7.97;3.47;;;22.80;63.10;;;;;;5009021;28;20033;-60
2022/06/22 11:24:05;;;;;;;6.20;3.22;;;22.80;63.20;;;;;;4982611;28;20022;-61
2022/06/22 11:32:43;;;;;;;7.80;3.90;;;22.80;63.00;;;;;;5003709;28;20052;-61
2022/06/22 11:35:27;;;;;;;8.10;3.60;;;22.90;63.00;;;;;;5048264;28;20029;-60
2022/06/22 11:37:56;;;;;;;7.07;3.58;;;22.90;63.00;;;;;;5063377;28;20021;-60
2022/06/22 11:40:49;;;;;;;7.43;3.65;;;22.90;63.00;;;;;;5046404;28;20568;-60
2022/06/22 11:43:48;;;;;;;6.65;3.65;;;22.90;63.00;;;;;;5046244;28;20074;-61
2022/06/22 11:46:36;;;;;;;6.47;3.50;;;22.90;63.00;;;;;;5046849;28;20505;-60
2022/06/22 11:49:16;;;;;;;7.57;4.00;;;23.00;63.10;;;;;;5046502;28;20442;-61
2022/06/22 11:52:06;;;;;;;7.65;3.95;;;23.00;62.80;;;;;;5047108;28;20501;-60
2022/06/22 11:54:42;;;;;;;8.27;3.75;;;23.00;62.80;;;;;;5048188;28;20025;-60
2022/06/22 11:57:34;;;;;;;6.65;3.70;;;23.00;62.70;;;;;;5059951;28;20053;-61
2022/06/22 12:00:08;;;;;;;7.88;3.85;;;23.00;62.70;;;;;;5004599;28;20124;-60
2022/06/22 12:02:37;;;;;;;8.32;3.72;;;23.10;62.70;;;;;;5001814;28;20065;-61
2022/06/22 12:05:12;;;;;;;6.20;3.58;;;23.10;62.70;;;;;;5003482;28;20048;-61
2022/06/22 12:07:54;;;;;;;6.85;3.53;;;23.10;62.70;;;;;;5006282;28;20112;-60
2022/06/22 12:10:44;;;;;;;6.10;3.80;;;23.10;62.70;;;;;;4987154;28;20409;-61
2022/06/22 12:13:28;;;;;;;5.85;3.42;;;23.10;62.80;;;;;;4997529;28;20522;-60
2022/06/22 12:16:23;;;;;;;7.68;3.25;;;23.10;62.70;;;;;;5000412;28;20032;-61
2022/06/22 12:18:54;;;;;;;7.55;3.55;;;23.10;62.60;;;;;;4982394;28;20068;-61
2022/06/22 12:21:48;;;;;;;6.35;3.60;;;23.20;62.60;;;;;;5002955;28;20030;-61
2022/06/22 12:24:19;;;;;;;7.85;3.38;;;23.20;62.70;;;;;;5000620;28;20034;-60
2022/06/22 12:27:00;;;;;;;6.68;3.90;;;23.20;62.60;;;;;;4997846;28;20030;-60
2022/06/22 12:29:40;;;;;;;6.65;3.42;;;23.20;62.70;;;;;;5003923;28;20064;-60
2022/06/22 12:32:26;;;;;;;6.43;3.53;;;23.20;62.60;;;;;;5002269;28;20046;-60
2022/06/22 12:34:51;;;;;;;7.88;3.78;;;23.20;62.60;;;;;;4998027;28;20073;-61
2022/06/22 12:37:21;;;;;;;5.85;3.47;;;23.30;62.60;;;;;;5026395;28;20049;-60
2022/06/22 12:39:51;;;;;;;5.93;3.50;;;23.30;62.60;;;;;;5025099;28;20036;-60
2022/06/22 12:42:36;;;;;;;7.30;3.55;;;23.30;62.70;;;;;;5030003;28;20516;-61
2022/06/22 12:45:26;;;;;;;7.00;4.00;;;23.30;62.60;;;;;;5033783;28;20127;-60
2022/06/22 12:48:16;;;;;;;6.10;3.53;;;23.30;62.70;;;;;;5027145;28;20048;-61
2022/06/22 12:50:41;;;;;;;6.57;3.40;;;23.30;62.70;;;;;;5030847;28;20497;-61
2022/06/22 12:53:12;;;;;;;6.80;3.80;;;23.30;62.60;;;;;;5030975;28;20074;-61
2022/06/22 12:55:45;;;;;;;6.30;3.47;;;23.30;62.60;;;;;;5027769;28;20029;-61
2022/06/22 12:58:11;;;;;;;7.70;3.85;;;23.30;62.60;;;;;;4989532;28;20021;-61
2022/06/22 13:00:37;;;;;;;9.57;4.03;;;23.30;62.50;;;;;;5005830;28;20033;-60
2022/06/22 13:03:03;;;;;;;5.82;3.47;;;23.30;62.60;;;;;;4992927;28;20030;-60
2022/06/22 13:05:32;;;;;;;6.88;3.70;;;23.30;62.50;;;;;;5026915;28;20025;-61
2022/06/22 13:08:04;;;;;;;6.88;3.58;;;23.30;62.60;;;;;;5005120;28;20481;-61
2022/06/22 13:10:39;;;;;;;6.57;3.63;;;23.30;62.50;;;;;;5009155;28;20045;-60
2022/06/22 13:13:20;;;;;;;6.55;3.53;;;23.30;62.40;;;;;;5001253;28;20106;-61
2022/06/22 13:15:56;;;;;;;6.22;3.50;;;23.30;62.60;;;;;;5028539;28;20474;-60
2022/06/22 13:18:35;;;;;;;6.47;3.70;;;23.30;62.70;;;;;;5012860;28;20144;-60
2022/06/22 13:21:12;;;;;;;6.75;3.30;;;23.30;62.50;;;;;;5028075;28;20026;-61
2022/06/22 13:23:58;;;;;;;7.00;3.58;;;23.30;62.60;;;;;;5008608;28;20575;-60
2022/06/22 13:26:42;;;;;;;7.28;3.67;;;23.30;62.60;;;;;;5009394;28;20547;-60
2022/06/22 13:29:23;;;;;;;5.90;3.47;;;23.30;62.40;;;;;;5026654;28;20053;-61
2022/06/22 13:31:49;;;;;;;6.15;3.50;;;23.30;62.40;;;;;;5005056;28;20306;-60
2022/06/22 13:34:17;;;;;;;7.40;3.90;;;23.30;63.60;;;;;;5009154;28;20128;-63
2022/06/22 13:37:06;;;;;;;7.55;3.60;;;23.30;62.50;;;;;;5002977;28;20370;-60
2022/06/22 13:40:07;;;;;;;8.95;3.72;;;23.30;62.60;;;;;;5026502;28;20578;-61
2022/06/22 13:43:03;;;;;;;6.43;3.53;;;23.40;62.50;;;;;;5024424;28;20073;-61
2022/06/22 13:45:47;;;;;;;6.40;3.45;;;23.40;62.50;;;;;;5023687;28;20060;-61
2022/06/22 13:48:19;;;;;;;7.03;3.70;;;23.40;62.50;;;;;;5024463;28;20425;-60
2022/06/22 13:53:42;;;;;;;6.07;3.50;;;23.40;62.50;;;;;;5021698;28;20112;-61
2022/06/22 13:56:35;;;;;;;5.00;3.33;;;23.50;62.50;;;;;;5024716;28;20034;-61
2022/06/22 13:59:05;;;;;;;5.43;3.40;;;23.40;62.40;;;;;;5024448;28;20017;-60